createdAt,value
2023-05-21T00:00:17.833Z,74.99
2023-05-21T00:03:14.567Z,74.67
2023-05-21T00:05:45.640Z,74.46
2023-05-21T00:08:15.018Z,74.47
2023-05-21T00:10:44.603Z,74.78
2023-05-21T00:13:14.260Z,74.82
2023-05-21T00:15:43.834Z,74.38
2023-05-21T00:18:13.012Z,73.99
2023-05-21T00:20:42.279Z,73.82
2023-05-21T00:23:11.895Z,73.67
2023-05-21T00:25:41.281Z,73.67
2023-05-21T00:28:10.448Z,73.52
2023-05-21T00:30:40.396Z,73.69
2023-05-21T00:33:11.019Z,73.87
2023-05-21T00:35:41.070Z,74.04
2023-05-21T00:38:10.095Z,74.16
2023-05-21T00:40:41.829Z,74.35
2023-05-21T00:43:12.269Z,74.36
2023-05-21T00:45:47.271Z,74.83
2023-05-21T00:48:16.859Z,75.05
2023-05-21T00:50:47.752Z,74.98
2023-05-21T00:53:20.270Z,74.68
2023-05-21T00:55:51.405Z,74.61
2023-05-21T00:58:21.373Z,74.67
2023-05-21T01:00:51.144Z,74.79
2023-05-21T01:03:21.102Z,74.84
2023-05-21T01:05:54.098Z,74.70
2023-05-21T01:08:23.459Z,74.83
2023-05-21T01:10:53.701Z,74.87
2023-05-21T01:13:24.995Z,74.93
2023-05-21T01:15:55.303Z,74.70
2023-05-21T01:18:25.035Z,74.48
2023-05-21T01:20:55.821Z,74.56
2023-05-21T01:23:26.352Z,74.81
2023-05-21T01:25:55.535Z,74.71
2023-05-21T01:28:25.853Z,74.42
2023-05-21T01:30:57.063Z,74.13
2023-05-21T01:33:37.085Z,74.25
2023-05-21T01:36:27.189Z,74.38
2023-05-21T01:39:24.483Z,74.30
2023-05-21T01:41:55.544Z,74.39
2023-05-21T01:44:27.120Z,74.49
2023-05-21T01:46:58.403Z,74.30
2023-05-21T01:49:28.091Z,74.07
2023-05-21T01:51:57.749Z,73.80
2023-05-21T01:54:26.471Z,73.80
2023-05-21T01:56:56.277Z,73.74
2023-05-21T01:59:25.470Z,73.33
2023-05-21T02:01:54.535Z,73.33
2023-05-21T02:04:23.303Z,73.34
2023-05-21T02:06:52.489Z,73.46
2023-05-21T02:09:22.276Z,73.46
2023-05-21T02:11:51.855Z,73.09
2023-05-21T02:14:21.179Z,72.90
2023-05-21T02:16:51.222Z,72.85
2023-05-21T02:19:21.081Z,72.67
2023-05-21T02:21:50.699Z,72.56
2023-05-21T02:24:20.293Z,72.46
2023-05-21T02:26:51.616Z,72.53
2023-05-21T02:29:21.333Z,72.82
2023-05-21T02:31:52.069Z,73.01
2023-05-21T02:34:21.508Z,73.16
2023-05-21T02:36:54.786Z,73.53
2023-05-21T02:39:24.608Z,73.82
2023-05-21T02:41:53.714Z,72.90
2023-05-21T02:44:24.588Z,72.78
2023-05-21T02:46:54.091Z,73.10
2023-05-21T02:49:23.438Z,73.19
2023-05-21T02:51:52.972Z,72.63
2023-05-21T02:54:22.216Z,72.62
2023-05-21T02:56:52.096Z,72.62
2023-05-21T02:59:21.436Z,73.06
2023-05-21T03:01:51.059Z,73.25
2023-05-21T03:04:22.341Z,72.97
2023-05-21T03:06:55.755Z,72.79
2023-05-21T03:09:25.263Z,72.89
2023-05-21T03:11:54.428Z,72.65
2023-05-21T03:14:25.529Z,72.34
2023-05-21T03:16:54.634Z,72.43
2023-05-21T03:19:25.435Z,72.48
2023-05-21T03:21:55.459Z,72.51
2023-05-21T03:24:24.642Z,72.65
2023-05-21T03:26:54.181Z,72.68
2023-05-21T03:29:23.689Z,72.94
2023-05-21T03:31:54.631Z,73.02
2023-05-21T03:34:24.408Z,73.01
2023-05-21T03:36:53.625Z,73.05
2023-05-21T03:39:22.778Z,73.59
2023-05-21T03:41:51.843Z,74.03
2023-05-21T03:44:20.648Z,74.08
2023-05-21T03:46:49.580Z,73.84
2023-05-21T03:49:18.488Z,73.76
2023-05-21T03:51:47.473Z,74.09
2023-05-21T03:54:16.460Z,74.13
2023-05-21T03:56:45.375Z,74.03
2023-05-21T03:59:14.565Z,73.60
2023-05-21T04:01:44.197Z,73.76
2023-05-21T04:04:13.679Z,73.86
2023-05-21T04:06:43.076Z,73.76
2023-05-21T04:09:13.076Z,73.51
2023-05-21T04:11:42.015Z,73.22
2023-05-21T04:14:11.151Z,73.46
2023-05-21T04:16:40.226Z,73.63
2023-05-21T04:19:09.408Z,72.71
2023-05-21T04:21:38.578Z,72.03
2023-05-21T04:24:07.680Z,72.22
2023-05-21T04:26:36.649Z,72.16
2023-05-21T04:29:05.753Z,72.42
2023-05-21T04:31:34.963Z,72.28
2023-05-21T04:34:04.779Z,72.33
2023-05-21T04:36:34.576Z,72.11
2023-05-21T04:39:03.659Z,72.22
2023-05-21T04:41:33.267Z,72.05
2023-05-21T04:44:02.514Z,71.98
2023-05-21T04:46:31.780Z,72.26
2023-05-21T04:49:04.242Z,72.45
2023-05-21T04:51:33.838Z,72.39
2023-05-21T04:54:04.136Z,72.36
2023-05-21T04:56:33.188Z,72.78
2023-05-21T04:59:05.230Z,72.63
2023-05-21T05:01:35.919Z,72.24
2023-05-21T05:04:07.006Z,71.90
2023-05-21T05:06:36.629Z,71.98
2023-05-21T05:09:05.578Z,72.11
2023-05-21T05:11:35.259Z,72.10
2023-05-21T05:14:04.766Z,72.02
2023-05-21T05:16:36.116Z,72.12
2023-05-21T05:19:05.471Z,72.07
2023-05-21T05:21:35.067Z,71.72
2023-05-21T05:24:04.472Z,71.49
2023-05-21T05:26:33.751Z,71.36
2023-05-21T05:29:02.608Z,71.72
2023-05-21T05:31:31.845Z,71.43
2023-05-21T05:34:01.220Z,70.94
2023-05-21T05:36:30.598Z,70.81
2023-05-21T05:38:59.615Z,70.98
2023-05-21T05:41:28.677Z,70.72
2023-05-21T05:43:58.385Z,70.21
2023-05-21T05:46:27.914Z,69.97
2023-05-21T05:48:57.111Z,69.97
2023-05-21T05:51:26.380Z,69.87
2023-05-21T05:53:55.388Z,69.53
2023-05-21T05:56:24.497Z,69.36
2023-05-21T05:58:53.789Z,69.47
2023-05-21T06:01:25.584Z,69.34
2023-05-21T06:03:55.021Z,69.00
2023-05-21T06:06:25.234Z,68.89
2023-05-21T06:08:55.078Z,68.91
2023-05-21T06:11:24.270Z,68.89
2023-05-21T06:13:56.016Z,68.35
2023-05-21T06:16:25.062Z,67.77
2023-05-21T06:18:54.453Z,67.49
2023-05-21T06:21:23.486Z,66.84
2023-05-21T06:23:52.435Z,66.10
2023-05-21T06:26:22.578Z,65.52
2023-05-21T06:28:51.845Z,64.98
2023-05-21T06:31:23.066Z,64.69
2023-05-21T06:33:52.548Z,65.04
2023-05-21T06:36:22.169Z,64.90
2023-05-21T06:38:51.517Z,64.55
2023-05-21T06:41:21.593Z,63.85
2023-05-21T06:43:50.847Z,63.45
2023-05-21T06:46:20.031Z,63.28
2023-05-21T06:48:49.427Z,62.63
2023-05-21T06:51:19.304Z,61.96
2023-05-21T06:53:48.684Z,61.12
2023-05-21T06:56:17.780Z,60.21
2023-05-21T06:58:47.067Z,59.74
2023-05-21T07:01:17.194Z,59.35
2023-05-21T07:03:46.651Z,58.85
2023-05-21T07:06:16.058Z,58.14
2023-05-21T07:08:46.026Z,57.47
2023-05-21T07:11:16.479Z,56.56
2023-05-21T07:13:45.935Z,55.36
2023-05-21T07:16:18.281Z,54.07
2023-05-21T07:18:47.770Z,52.11
2023-05-21T07:21:17.484Z,51.07
2023-05-21T07:23:47.647Z,50.03
2023-05-21T07:26:17.204Z,49.05
2023-05-21T07:28:46.867Z,48.18
2023-05-21T07:31:16.079Z,47.34
2023-05-21T07:33:46.362Z,46.16
2023-05-21T07:36:15.697Z,45.40
2023-05-21T07:38:45.437Z,44.92
2023-05-21T07:41:15.521Z,44.44
2023-05-21T07:43:46.448Z,43.85
2023-05-21T07:46:15.747Z,43.32
2023-05-21T07:48:45.023Z,42.95
2023-05-21T07:51:14.246Z,42.29
2023-05-21T07:53:43.898Z,42.44
2023-05-21T07:56:13.141Z,41.81
2023-05-21T07:58:44.427Z,42.23
2023-05-21T08:01:14.584Z,42.11
2023-05-21T08:03:44.463Z,41.92
2023-05-21T08:06:13.957Z,41.40
2023-05-21T08:08:43.451Z,40.67
2023-05-21T08:11:12.641Z,39.92
2023-05-21T08:13:42.102Z,40.03
2023-05-21T08:16:12.116Z,39.91
2023-05-21T08:18:41.774Z,40.73
2023-05-21T08:21:11.227Z,40.54
2023-05-21T08:23:41.140Z,40.27
2023-05-21T08:26:10.369Z,40.09
2023-05-21T08:28:40.553Z,40.86
2023-05-21T08:31:09.829Z,41.30
2023-05-21T08:33:39.575Z,41.68
2023-05-21T08:36:09.478Z,40.86
2023-05-21T08:38:38.851Z,40.80
2023-05-21T08:41:09.393Z,40.41
2023-05-21T08:43:39.808Z,38.84
2023-05-21T08:46:10.489Z,38.74
2023-05-21T08:48:40.295Z,37.68
2023-05-21T08:51:09.966Z,37.58
2023-05-21T08:53:39.340Z,37.29
2023-05-21T08:56:08.712Z,36.26
2023-05-21T08:58:38.580Z,35.53
2023-05-21T09:01:08.038Z,34.14
2023-05-21T09:03:41.725Z,33.77
2023-05-21T09:06:14.542Z,33.41
2023-05-21T09:08:46.449Z,33.43
2023-05-21T09:11:16.147Z,34.18
2023-05-21T09:13:47.027Z,33.73
2023-05-21T09:16:17.424Z,33.33
2023-05-21T09:18:47.104Z,32.08
2023-05-21T09:21:33.492Z,31.23
2023-05-21T09:24:02.994Z,30.03
2023-05-21T09:26:32.344Z,29.36
2023-05-21T09:29:02.031Z,28.14
2023-05-21T09:31:33.473Z,27.21
2023-05-21T09:34:04.395Z,26.62
2023-05-21T09:36:38.328Z,26.27
2023-05-21T09:39:07.916Z,25.80
2023-05-21T09:41:39.256Z,26.04
2023-05-21T09:44:08.796Z,26.16
2023-05-21T09:46:42.667Z,25.58
2023-05-21T09:49:26.919Z,25.92
2023-05-21T09:51:59.834Z,26.00
2023-05-21T09:54:34.479Z,25.15
2023-05-21T09:57:04.366Z,24.57
2023-05-21T09:59:40.464Z,24.75
2023-05-21T10:02:38.082Z,23.68
2023-05-21T10:05:11.272Z,23.70
2023-05-21T10:07:43.650Z,24.22
2023-05-21T10:10:15.599Z,24.81
2023-05-21T10:12:48.665Z,25.27
2023-05-21T10:15:23.065Z,25.47
2023-05-21T10:17:54.061Z,26.32
2023-05-21T10:20:23.183Z,26.86
2023-05-21T10:22:53.715Z,27.55
2023-05-21T10:25:27.385Z,28.42
2023-05-21T10:27:57.914Z,29.08
2023-05-21T10:30:27.679Z,29.32
2023-05-21T10:32:59.182Z,30.32
2023-05-21T10:35:29.854Z,30.13
2023-05-21T10:38:02.172Z,29.57
2023-05-21T10:40:31.912Z,29.74
2023-05-21T10:43:09.477Z,30.09
2023-05-21T10:46:01.524Z,29.89
2023-05-21T10:48:41.572Z,30.13
2023-05-21T10:51:43.850Z,29.67
2023-05-21T10:54:29.758Z,30.06
2023-05-21T10:57:20.460Z,30.64
2023-05-21T10:59:51.898Z,31.44
2023-05-21T11:02:22.208Z,31.82
2023-05-21T11:05:02.803Z,31.81
2023-05-21T11:07:57.028Z,32.29
2023-05-21T11:10:41.707Z,32.83
2023-05-21T11:13:17.366Z,33.21
2023-05-21T11:16:00.326Z,33.31
2023-05-21T11:18:40.026Z,33.60
2023-05-21T11:21:22.683Z,33.97
2023-05-21T11:23:57.853Z,34.15
2023-05-21T11:26:30.225Z,34.54
2023-05-21T11:29:07.358Z,33.53
2023-05-21T11:31:41.088Z,32.96
2023-05-21T11:34:30.896Z,32.04
2023-05-21T11:37:22.181Z,31.30
2023-05-21T11:39:53.431Z,30.73
2023-05-21T11:42:39.635Z,30.49
2023-05-21T11:45:10.826Z,30.32
2023-05-21T11:47:43.345Z,30.51
2023-05-21T11:50:15.462Z,30.51
2023-05-21T11:52:46.484Z,30.41
2023-05-21T11:55:17.021Z,30.44
2023-05-21T11:57:48.749Z,30.97
2023-05-21T12:00:19.159Z,30.96
2023-05-21T12:02:53.655Z,31.48
2023-05-21T12:05:24.377Z,31.86
2023-05-21T12:07:56.897Z,31.63
2023-05-21T12:10:27.278Z,30.92
2023-05-21T12:12:58.059Z,30.98
2023-05-21T12:15:29.470Z,31.48
2023-05-21T12:17:59.645Z,31.87
2023-05-21T12:20:29.580Z,31.54
2023-05-21T12:22:59.893Z,31.23
2023-05-21T12:25:31.012Z,30.90
2023-05-21T12:28:02.041Z,30.48
2023-05-21T12:30:32.141Z,30.58
2023-05-21T12:33:03.934Z,29.83
2023-05-21T12:35:33.365Z,29.31
2023-05-21T12:38:04.240Z,28.60
2023-05-21T12:40:41.706Z,28.09
2023-05-21T12:43:11.512Z,27.60
2023-05-21T12:45:41.375Z,26.87
2023-05-21T12:48:12.929Z,25.57
2023-05-21T12:50:44.707Z,24.31
2023-05-21T12:53:15.429Z,23.64
2023-05-21T12:55:46.614Z,23.24
2023-05-21T12:58:17.932Z,23.30
2023-05-21T13:00:48.129Z,23.42
2023-05-21T13:03:17.851Z,23.46
2023-05-21T13:05:48.731Z,24.27
2023-05-21T13:08:18.741Z,24.83
2023-05-21T13:10:49.578Z,26.01
2023-05-21T13:13:19.494Z,27.10
2023-05-21T13:15:51.031Z,28.46
2023-05-21T13:18:24.114Z,29.51
2023-05-21T13:20:53.309Z,30.29
2023-05-21T13:23:23.665Z,30.95
2023-05-21T13:25:53.260Z,31.96
2023-05-21T13:28:24.523Z,32.76
2023-05-21T13:30:55.892Z,33.61
2023-05-21T13:33:25.417Z,34.96
2023-05-21T13:35:54.831Z,37.26
2023-05-21T13:38:24.525Z,38.44
2023-05-21T13:40:55.508Z,40.18
2023-05-21T13:43:24.794Z,41.24
2023-05-21T13:45:54.468Z,42.96
2023-05-21T13:48:24.158Z,42.84
2023-05-21T13:50:54.874Z,42.96
2023-05-21T13:53:25.328Z,44.68
2023-05-21T13:55:55.509Z,45.89
2023-05-21T13:58:25.342Z,45.82
2023-05-21T14:00:55.589Z,46.41
2023-05-21T14:03:25.603Z,46.43
2023-05-21T14:05:56.886Z,45.97
2023-05-21T14:08:28.745Z,45.05
2023-05-21T14:10:58.670Z,44.89
2023-05-21T14:13:28.336Z,45.71
2023-05-21T14:15:58.306Z,45.99
2023-05-21T14:18:32.273Z,45.98
2023-05-21T14:21:02.735Z,45.61
2023-05-21T14:23:32.768Z,45.31
2023-05-21T14:26:03.270Z,45.38
2023-05-21T14:28:33.064Z,44.80
2023-05-21T14:31:04.897Z,44.10
2023-05-21T14:33:36.803Z,44.11
2023-05-21T14:36:06.924Z,43.65
2023-05-21T14:38:36.986Z,42.51
2023-05-21T14:41:08.491Z,42.54
2023-05-21T14:43:38.907Z,42.14
2023-05-21T14:46:10.514Z,39.88
2023-05-21T14:48:40.880Z,39.74
2023-05-21T14:51:10.380Z,38.77
2023-05-21T14:53:40.870Z,38.68
2023-05-21T14:56:11.726Z,39.10
2023-05-21T14:58:41.756Z,39.68
2023-05-21T15:01:11.497Z,40.75
2023-05-21T15:03:41.905Z,39.91
2023-05-21T15:06:13.215Z,38.74
2023-05-21T15:08:43.252Z,38.05
2023-05-21T15:11:12.996Z,38.22
2023-05-21T15:13:42.479Z,38.10
2023-05-21T15:16:12.994Z,37.95
2023-05-21T15:18:44.560Z,37.83
2023-05-21T15:21:14.780Z,37.13
2023-05-21T15:23:44.284Z,37.33
2023-05-21T15:26:14.248Z,36.62
2023-05-21T15:28:44.173Z,36.58
2023-05-21T15:31:14.234Z,36.82
2023-05-21T15:33:44.470Z,36.73
2023-05-21T15:36:13.993Z,37.33
2023-05-21T15:38:44.293Z,37.75
2023-05-21T15:41:14.463Z,38.24
2023-05-21T15:43:45.935Z,38.41
2023-05-21T15:46:17.484Z,38.38
2023-05-21T15:48:48.031Z,38.38
2023-05-21T15:51:19.402Z,38.47
2023-05-21T15:53:50.653Z,38.40
2023-05-21T15:56:20.339Z,38.42
2023-05-21T15:58:49.871Z,37.64
2023-05-21T16:01:19.807Z,37.71
2023-05-21T16:03:49.367Z,38.00
2023-05-21T16:06:20.765Z,38.12
2023-05-21T16:08:51.000Z,38.65
2023-05-21T16:11:21.335Z,38.00
2023-05-21T16:13:51.081Z,38.37
2023-05-21T16:16:24.356Z,38.08
2023-05-21T16:18:55.010Z,38.08
2023-05-21T16:21:24.664Z,37.97
2023-05-21T16:23:54.139Z,38.32
2023-05-21T16:26:23.380Z,38.42
2023-05-21T16:28:52.801Z,38.60
2023-05-21T16:31:23.403Z,38.28
2023-05-21T16:33:52.931Z,38.66
2023-05-21T16:36:22.719Z,38.74
2023-05-21T16:38:53.531Z,38.70
2023-05-21T16:41:23.488Z,38.70
2023-05-21T16:43:54.733Z,38.93
2023-05-21T16:46:24.355Z,39.30
2023-05-21T16:48:54.178Z,39.54
2023-05-21T16:51:23.730Z,39.63
2023-05-21T16:53:53.000Z,40.15
2023-05-21T16:56:22.487Z,40.50
2023-05-21T16:58:53.036Z,40.78
2023-05-21T17:01:22.444Z,41.05
2023-05-21T17:03:52.182Z,41.40
2023-05-21T17:06:22.198Z,41.70
2023-05-21T17:08:51.658Z,42.01
2023-05-21T17:11:22.337Z,42.22
2023-05-21T17:13:53.383Z,42.51
2023-05-21T17:16:25.682Z,42.71
2023-05-21T17:18:56.512Z,42.77
2023-05-21T17:21:27.496Z,43.05
2023-05-21T17:23:57.467Z,43.05
2023-05-21T17:26:27.130Z,43.23
2023-05-21T17:28:57.088Z,43.43
2023-05-21T17:31:28.114Z,43.54
2023-05-21T17:33:59.235Z,43.53
2023-05-21T17:36:30.901Z,43.76
2023-05-21T17:39:02.722Z,43.88
2023-05-21T17:41:34.439Z,44.20
2023-05-21T17:44:04.209Z,44.41
2023-05-21T17:46:34.442Z,44.99
2023-05-21T17:49:04.441Z,44.95
2023-05-21T17:51:34.709Z,45.17
2023-05-21T17:54:07.891Z,45.43
2023-05-21T17:56:41.442Z,45.19
2023-05-21T17:59:12.410Z,45.80
2023-05-21T18:01:42.818Z,45.89
2023-05-21T18:04:13.179Z,46.30
2023-05-21T18:06:44.053Z,46.36
2023-05-21T18:09:16.144Z,46.54
2023-05-21T18:11:45.602Z,46.72
2023-05-21T18:14:15.051Z,46.88
2023-05-21T18:16:45.589Z,46.92
2023-05-21T18:19:15.301Z,47.14
2023-05-21T18:21:46.806Z,47.28
2023-05-21T18:24:16.969Z,47.80
2023-05-21T18:26:47.163Z,48.09
2023-05-21T18:29:16.902Z,48.71
2023-05-21T18:31:47.487Z,49.23
2023-05-21T18:34:18.459Z,50.19
2023-05-21T18:36:49.399Z,51.02
2023-05-21T18:39:25.144Z,51.74
2023-05-21T18:42:11.575Z,52.53
2023-05-21T18:44:46.165Z,52.83
2023-05-21T18:47:16.352Z,53.61
2023-05-21T18:49:46.360Z,53.87
2023-05-21T18:52:16.164Z,54.45
2023-05-21T18:54:46.155Z,54.73
2023-05-21T18:57:16.320Z,55.12
2023-05-21T18:59:45.735Z,55.98
2023-05-21T19:02:15.587Z,56.60
2023-05-21T19:04:45.554Z,56.94
2023-05-21T19:07:16.879Z,57.30
2023-05-21T19:09:46.084Z,57.94
2023-05-21T19:12:15.436Z,58.46
2023-05-21T19:14:45.728Z,58.67
2023-05-21T19:17:17.024Z,58.92
2023-05-21T19:19:47.562Z,59.39
2023-05-21T19:22:19.227Z,59.66
2023-05-21T19:24:49.805Z,59.79
2023-05-21T19:27:20.059Z,59.71
2023-05-21T19:29:50.086Z,59.98
2023-05-21T19:32:21.715Z,60.48
2023-05-21T19:34:52.802Z,60.59
2023-05-21T19:37:23.515Z,60.64
2023-05-21T19:39:53.887Z,60.64
2023-05-21T19:42:24.115Z,60.64
2023-05-21T19:44:54.810Z,60.88
2023-05-21T19:47:25.058Z,60.94
2023-05-21T19:49:57.347Z,60.95
2023-05-21T19:52:26.958Z,61.27
2023-05-21T19:55:04.867Z,61.67
2023-05-21T19:57:36.488Z,61.92
2023-05-21T20:00:11.718Z,62.10
2023-05-21T20:02:42.904Z,62.26
2023-05-21T20:05:13.423Z,62.50
2023-05-21T20:07:44.851Z,62.74
2023-05-21T20:10:14.920Z,62.77
2023-05-21T20:12:45.677Z,62.52
2023-05-21T20:15:16.072Z,62.56
2023-05-21T20:17:45.793Z,62.65
2023-05-21T20:20:17.952Z,62.63
2023-05-21T20:22:47.786Z,62.59
2023-05-21T20:25:17.211Z,62.70
2023-05-21T20:27:47.229Z,63.11
2023-05-21T20:30:17.413Z,63.72
2023-05-21T20:32:47.686Z,63.99
2023-05-21T20:35:17.482Z,64.26
2023-05-21T20:37:47.843Z,64.25
2023-05-21T20:40:19.857Z,64.58
2023-05-21T20:42:52.375Z,64.73
2023-05-21T20:45:22.588Z,64.78
2023-05-21T20:47:52.499Z,64.75
2023-05-21T20:50:26.457Z,64.98
2023-05-21T20:52:55.460Z,64.84
2023-05-21T20:55:24.974Z,64.83
2023-05-21T20:57:54.374Z,65.00
2023-05-21T21:00:23.744Z,65.45
2023-05-21T21:02:53.476Z,65.80
2023-05-21T21:05:24.630Z,66.01
2023-05-21T21:07:55.894Z,65.85
2023-05-21T21:10:25.814Z,65.96
2023-05-21T21:12:55.321Z,66.28
2023-05-21T21:15:24.904Z,66.24
2023-05-21T21:17:54.444Z,66.21
2023-05-21T21:20:23.524Z,66.27
2023-05-21T21:22:52.869Z,66.38
2023-05-21T21:25:22.604Z,66.22
2023-05-21T21:27:51.748Z,66.05
2023-05-21T21:30:21.681Z,65.32
2023-05-21T21:32:52.619Z,64.95
2023-05-21T21:35:22.599Z,65.10
2023-05-21T21:37:52.221Z,64.97
2023-05-21T21:40:21.553Z,65.32
2023-05-21T21:42:51.012Z,65.45
2023-05-21T21:45:19.993Z,65.59
2023-05-21T21:47:49.714Z,65.30
2023-05-21T21:50:18.863Z,64.94
2023-05-21T21:52:49.601Z,64.95
2023-05-21T21:55:19.644Z,64.92
2023-05-21T21:57:49.808Z,64.92
2023-05-21T22:00:19.515Z,64.82
2023-05-21T22:02:48.815Z,64.78
2023-05-21T22:05:18.800Z,64.64
2023-05-21T22:07:48.375Z,65.15
2023-05-21T22:10:18.922Z,65.15
2023-05-21T22:12:48.524Z,65.25
2023-05-21T22:15:29.036Z,65.42
2023-05-21T22:17:58.633Z,65.76
2023-05-21T22:20:33.687Z,65.85
2023-05-21T22:23:02.685Z,65.57
2023-05-21T22:25:32.217Z,65.40
2023-05-21T22:28:02.221Z,65.15
2023-05-21T22:30:31.454Z,65.17
2023-05-21T22:33:01.523Z,64.90
2023-05-21T22:35:30.933Z,64.58
2023-05-21T22:38:00.523Z,64.32
2023-05-21T22:40:30.692Z,64.80
2023-05-21T22:43:02.964Z,64.83
2023-05-21T22:45:32.227Z,64.60
2023-05-21T22:48:07.267Z,64.84
2023-05-21T22:50:36.730Z,65.66
2023-05-21T22:53:07.321Z,66.33
2023-05-21T22:55:36.816Z,66.54
2023-05-21T22:58:06.321Z,66.65
2023-05-21T23:00:35.900Z,66.94
2023-05-21T23:03:05.498Z,67.41
2023-05-21T23:05:34.861Z,67.51
2023-05-21T23:08:03.801Z,67.36
2023-05-21T23:10:33.117Z,67.22
2023-05-21T23:13:02.535Z,67.39
2023-05-21T23:15:31.517Z,66.69
2023-05-21T23:18:01.334Z,65.65
2023-05-21T23:20:30.652Z,65.65
2023-05-21T23:22:59.722Z,66.38
2023-05-21T23:25:28.357Z,66.80
2023-05-21T23:27:57.842Z,66.80
2023-05-21T23:30:26.978Z,66.64
2023-05-21T23:32:56.066Z,66.41
2023-05-21T23:35:25.372Z,65.88
2023-05-21T23:37:54.129Z,65.89
2023-05-21T23:40:23.353Z,65.53
2023-05-21T23:42:52.285Z,65.53
2023-05-21T23:45:21.396Z,65.93
2023-05-21T23:47:50.284Z,66.03
2023-05-21T23:50:19.750Z,66.03
2023-05-21T23:52:48.917Z,65.69
2023-05-21T23:55:18.222Z,66.06
2023-05-21T23:57:47.241Z,66.36
